createdAt,value
2023-04-29T00:00:00.777Z,5.35
2023-04-29T00:02:44.059Z,5.05
2023-04-29T00:05:17.515Z,6.95
2023-04-29T00:07:49.693Z,7.28
2023-04-29T00:10:22.151Z,8.00
2023-04-29T00:12:54.996Z,5.85
2023-04-29T00:15:27.768Z,9.63
2023-04-29T00:18:00.093Z,7.63
2023-04-29T00:20:33.248Z,5.25
2023-04-29T00:23:05.522Z,6.03
2023-04-29T00:25:38.864Z,8.05
2023-04-29T00:28:11.232Z,8.82
2023-04-29T00:30:43.588Z,6.50
2023-04-29T00:33:15.523Z,7.90
2023-04-29T00:35:48.610Z,7.23
2023-04-29T00:38:21.596Z,6.65
2023-04-29T00:40:53.762Z,7.43
2023-04-29T00:43:27.478Z,12.55
2023-04-29T00:45:59.483Z,8.18
2023-04-29T00:48:33.436Z,10.00
2023-04-29T00:51:06.594Z,10.38
2023-04-29T00:53:40.098Z,6.50
2023-04-29T00:56:15.298Z,8.73
2023-04-29T00:58:50.177Z,7.03
2023-04-29T01:01:23.715Z,5.90
2023-04-29T01:03:58.272Z,5.07
2023-04-29T01:06:59.676Z,8.77
2023-04-29T01:09:53.363Z,7.85
2023-04-29T01:13:00.969Z,6.90
2023-04-29T01:15:49.729Z,7.47
2023-04-29T01:18:56.811Z,6.63
2023-04-29T01:21:49.630Z,6.30
2023-04-29T01:24:21.693Z,8.48
2023-04-29T01:30:58.754Z,5.13
2023-04-29T01:34:06.404Z,7.80
2023-04-29T01:37:09.369Z,6.25
2023-04-29T01:40:15.351Z,5.18
2023-04-29T01:43:05.223Z,8.23
2023-04-29T01:45:44.521Z,6.93
2023-04-29T01:51:12.397Z,5.55
2023-04-29T01:53:47.277Z,4.57
2023-04-29T01:56:19.242Z,6.30
2023-04-29T01:59:03.852Z,5.77
2023-04-29T02:01:47.739Z,4.70
2023-04-29T02:04:20.630Z,7.07
2023-04-29T02:06:53.522Z,5.75
2023-04-29T02:09:26.148Z,4.30
2023-04-29T02:12:06.145Z,6.00
2023-04-29T02:14:38.262Z,6.38
2023-04-29T02:17:12.316Z,6.07
2023-04-29T02:19:46.580Z,7.13
2023-04-29T02:22:19.948Z,7.03
2023-04-29T02:24:52.056Z,8.43
2023-04-29T02:27:24.845Z,5.65
2023-04-29T02:29:57.292Z,6.60
2023-04-29T02:32:31.131Z,6.63
2023-04-29T02:35:04.340Z,5.28
2023-04-29T02:37:37.503Z,6.63
2023-04-29T02:40:09.910Z,8.40
2023-04-29T02:42:42.847Z,6.35
2023-04-29T02:45:15.266Z,6.20
2023-04-29T02:47:47.598Z,9.57
2023-04-29T02:50:20.887Z,10.17
2023-04-29T02:52:53.544Z,5.78
2023-04-29T02:55:27.375Z,7.70
2023-04-29T02:58:03.826Z,6.78
2023-04-29T03:00:36.691Z,14.93
2023-04-29T03:03:09.833Z,7.60
2023-04-29T03:05:42.410Z,8.30
2023-04-29T03:08:15.715Z,7.28
2023-04-29T03:10:47.736Z,8.57
2023-04-29T03:13:21.245Z,10.57
2023-04-29T03:15:54.188Z,6.67
2023-04-29T03:18:27.490Z,8.32
2023-04-29T03:20:59.815Z,9.10
2023-04-29T03:23:32.890Z,8.38
2023-04-29T03:26:07.591Z,7.88
2023-04-29T03:28:43.071Z,5.47
2023-04-29T03:31:16.651Z,6.30
2023-04-29T03:33:49.489Z,7.13
2023-04-29T03:36:21.384Z,6.32
2023-04-29T03:39:14.035Z,5.88
2023-04-29T03:41:47.733Z,6.63
2023-04-29T03:44:23.206Z,6.82
2023-04-29T03:46:55.200Z,6.82
2023-04-29T03:49:28.950Z,9.00
2023-04-29T03:52:00.954Z,10.60
2023-04-29T03:54:34.270Z,7.10
2023-04-29T03:57:06.924Z,6.18
2023-04-29T03:59:40.089Z,6.63
2023-04-29T04:02:12.999Z,7.38
2023-04-29T04:04:46.549Z,8.25
2023-04-29T04:07:18.535Z,7.43
2023-04-29T04:10:10.552Z,8.75
2023-04-29T04:12:44.158Z,5.47
2023-04-29T04:15:17.462Z,5.78
2023-04-29T04:17:49.439Z,6.18
2023-04-29T04:20:22.392Z,8.90
2023-04-29T04:22:57.365Z,6.35
2023-04-29T04:25:33.258Z,9.73
2023-04-29T04:28:19.699Z,9.38
2023-04-29T04:31:02.474Z,8.15
2023-04-29T04:33:35.702Z,7.40
2023-04-29T04:36:08.568Z,8.85
2023-04-29T04:38:40.433Z,6.32
2023-04-29T04:41:16.951Z,6.75
2023-04-29T04:43:51.906Z,6.07
2023-04-29T04:46:37.249Z,5.55
2023-04-29T04:49:27.560Z,5.93
2023-04-29T04:51:59.885Z,6.53
2023-04-29T04:54:32.428Z,6.53
2023-04-29T04:57:12.689Z,7.15
2023-04-29T04:59:45.039Z,6.30
2023-04-29T05:02:18.050Z,8.05
2023-04-29T05:04:50.014Z,7.88
2023-04-29T05:07:24.396Z,5.03
2023-04-29T05:10:14.636Z,5.57
2023-04-29T05:12:54.377Z,7.18
2023-04-29T05:15:27.723Z,5.47
2023-04-29T05:18:02.853Z,5.03
2023-04-29T05:20:36.422Z,6.03
2023-04-29T05:23:10.127Z,10.27
2023-04-29T05:25:45.093Z,9.70
2023-04-29T05:28:17.171Z,6.97
2023-04-29T05:30:53.558Z,5.43
2023-04-29T05:33:26.973Z,6.03
2023-04-29T05:35:59.250Z,6.07
2023-04-29T05:38:32.940Z,6.78
2023-04-29T05:41:08.758Z,11.82
2023-04-29T05:43:47.235Z,8.98
2023-04-29T05:46:23.082Z,6.65
2023-04-29T05:48:56.576Z,9.77
2023-04-29T05:51:28.583Z,6.87
2023-04-29T05:54:02.032Z,7.93
2023-04-29T05:56:35.609Z,8.82
2023-04-29T05:59:07.919Z,9.88
2023-04-29T06:01:39.982Z,10.95
2023-04-29T06:04:13.343Z,7.37
2023-04-29T06:07:05.558Z,5.47
2023-04-29T06:09:56.872Z,5.97
2023-04-29T06:12:31.425Z,5.43
2023-04-29T06:15:04.296Z,9.27
2023-04-29T06:17:38.128Z,9.50
2023-04-29T06:20:11.583Z,6.35
2023-04-29T06:22:44.636Z,5.95
2023-04-29T06:25:16.742Z,8.13
2023-04-29T06:27:54.069Z,6.50
2023-04-29T06:30:28.941Z,7.07
2023-04-29T06:33:02.473Z,4.53
2023-04-29T06:35:34.559Z,5.70
2023-04-29T06:38:25.589Z,6.13
2023-04-29T06:41:16.801Z,4.45
2023-04-29T06:44:01.296Z,4.97
2023-04-29T06:46:57.120Z,6.82
2023-04-29T06:49:45.132Z,5.07
2023-04-29T06:52:17.382Z,4.85
2023-04-29T06:54:49.797Z,6.80
2023-04-29T06:57:24.316Z,6.10
2023-04-29T06:59:56.363Z,4.70
2023-04-29T07:02:30.440Z,5.95
2023-04-29T07:05:02.812Z,5.97
2023-04-29T07:07:35.440Z,6.10
2023-04-29T07:10:08.325Z,6.63
2023-04-29T07:12:40.353Z,4.97
2023-04-29T07:15:13.330Z,5.35
2023-04-29T07:17:45.402Z,8.68
2023-04-29T07:20:21.354Z,4.85
2023-04-29T07:22:54.594Z,4.40
2023-04-29T07:25:29.582Z,4.82
2023-04-29T07:28:01.493Z,5.40
2023-04-29T07:30:34.171Z,6.18
2023-04-29T07:33:06.315Z,6.82
2023-04-29T07:35:39.044Z,6.30
2023-04-29T07:38:11.343Z,7.13
2023-04-29T07:40:45.342Z,6.70
2023-04-29T07:43:17.924Z,5.00
2023-04-29T07:45:50.586Z,5.00
2023-04-29T07:48:22.800Z,6.00
2023-04-29T07:50:55.821Z,4.32
2023-04-29T07:53:28.219Z,5.32
2023-04-29T07:56:05.824Z,5.55
2023-04-29T07:58:37.924Z,5.50
2023-04-29T08:01:12.086Z,4.90
2023-04-29T08:03:45.579Z,5.45
2023-04-29T08:06:22.313Z,5.22
2023-04-29T08:08:56.237Z,8.57
2023-04-29T08:11:28.523Z,5.13
2023-04-29T08:14:00.630Z,5.70
2023-04-29T08:16:33.284Z,4.50
2023-04-29T08:19:05.234Z,5.97
2023-04-29T08:21:37.943Z,5.45
2023-04-29T08:24:09.837Z,5.72
2023-04-29T08:26:42.751Z,6.93
2023-04-29T08:29:16.200Z,7.32
2023-04-29T08:31:48.922Z,5.93
2023-04-29T08:34:21.318Z,6.03
2023-04-29T08:36:53.831Z,5.72
2023-04-29T08:39:26.121Z,5.13
2023-04-29T08:41:59.375Z,5.60
2023-04-29T08:44:32.642Z,7.38
2023-04-29T08:47:06.617Z,5.22
2023-04-29T08:49:38.517Z,4.43
2023-04-29T08:52:11.945Z,6.10
2023-04-29T08:54:44.279Z,5.30
2023-04-29T08:57:17.003Z,5.35
2023-04-29T08:59:49.341Z,5.15
2023-04-29T09:02:23.192Z,6.82
2023-04-29T09:05:01.219Z,5.57
2023-04-29T09:07:34.347Z,4.78
2023-04-29T09:10:08.266Z,5.40
2023-04-29T09:12:40.588Z,6.47
2023-04-29T09:15:13.174Z,6.25
2023-04-29T09:17:48.187Z,5.50
2023-04-29T09:20:21.399Z,6.60
2023-04-29T09:22:59.979Z,5.05
2023-04-29T09:25:32.879Z,5.32
2023-04-29T09:28:17.450Z,5.13
2023-04-29T09:30:51.005Z,6.00
2023-04-29T09:33:22.967Z,5.68
2023-04-29T09:35:55.584Z,10.48
2023-04-29T09:38:28.148Z,6.93
2023-04-29T09:41:10.179Z,9.27
2023-04-29T09:43:42.613Z,9.00
2023-04-29T09:46:15.829Z,6.45
2023-04-29T09:48:47.833Z,5.80
2023-04-29T09:51:20.812Z,6.80
2023-04-29T09:53:52.738Z,6.05
2023-04-29T09:56:29.354Z,5.50
2023-04-29T09:59:09.381Z,7.18
2023-04-29T10:01:42.502Z,5.88
2023-04-29T10:04:17.429Z,6.78
2023-04-29T10:06:52.938Z,5.28
2023-04-29T10:09:24.847Z,7.07
2023-04-29T10:11:57.523Z,10.07
2023-04-29T10:14:35.334Z,5.85
2023-04-29T10:17:17.749Z,4.97
2023-04-29T10:20:06.154Z,6.03
2023-04-29T10:22:54.825Z,6.30
2023-04-29T10:25:28.626Z,6.57
2023-04-29T10:28:01.614Z,5.00
2023-04-29T10:30:36.160Z,4.97
2023-04-29T10:33:09.684Z,6.47
2023-04-29T10:35:45.401Z,5.40
2023-04-29T10:38:40.241Z,6.18
2023-04-29T10:41:24.998Z,5.53
2023-04-29T10:44:00.648Z,6.03
2023-04-29T10:46:34.777Z,6.15
2023-04-29T10:49:07.555Z,5.40
2023-04-29T10:51:43.303Z,6.38
2023-04-29T10:54:26.183Z,5.18
2023-04-29T10:56:58.093Z,6.13
2023-04-29T10:59:33.637Z,5.95
2023-04-29T11:02:06.061Z,6.70
2023-04-29T11:05:11.436Z,5.30
2023-04-29T11:07:46.109Z,5.45
2023-04-29T11:10:18.801Z,5.70
2023-04-29T11:13:28.139Z,6.25
2023-04-29T11:16:11.856Z,7.60
2023-04-29T11:19:08.992Z,9.88
2023-04-29T11:21:41.267Z,10.10
2023-04-29T11:24:16.452Z,5.85
2023-04-29T11:26:49.063Z,5.20
2023-04-29T11:29:23.085Z,15.60
2023-04-29T11:32:04.734Z,6.50
2023-04-29T11:34:37.823Z,7.60
2023-04-29T11:37:10.367Z,5.75
2023-04-29T11:39:43.309Z,6.93
2023-04-29T11:42:21.403Z,9.73
2023-04-29T11:44:57.362Z,5.53
2023-04-29T11:47:31.056Z,8.48
2023-04-29T11:50:09.120Z,5.40
2023-04-29T11:52:41.614Z,8.15
2023-04-29T11:55:15.055Z,8.33
2023-04-29T11:57:51.050Z,7.53
2023-04-29T12:00:25.204Z,7.85
2023-04-29T12:02:58.821Z,6.30
2023-04-29T12:05:32.096Z,8.05
2023-04-29T12:08:04.268Z,5.57
2023-04-29T12:10:36.905Z,6.05
2023-04-29T12:13:10.348Z,6.20
2023-04-29T12:15:43.949Z,5.65
2023-04-29T12:18:18.565Z,6.20
2023-04-29T12:20:56.302Z,7.37
2023-04-29T12:23:28.391Z,6.55
2023-04-29T12:26:01.820Z,5.55
2023-04-29T12:28:34.710Z,6.35
2023-04-29T12:31:09.438Z,7.25
2023-04-29T12:33:46.856Z,5.60
2023-04-29T12:36:19.417Z,7.43
2023-04-29T12:38:55.003Z,7.65
2023-04-29T12:41:42.752Z,8.10
2023-04-29T12:44:16.677Z,5.53
2023-04-29T12:46:48.640Z,10.30
2023-04-29T12:49:21.641Z,5.32
2023-04-29T12:51:53.669Z,6.80
2023-04-29T12:54:26.716Z,5.65
2023-04-29T12:56:59.040Z,5.45
2023-04-29T12:59:31.589Z,7.63
2023-04-29T13:02:03.594Z,6.68
2023-04-29T13:04:36.234Z,8.02
2023-04-29T13:07:08.285Z,5.05
2023-04-29T13:09:42.047Z,5.63
2023-04-29T13:12:14.305Z,6.20
2023-04-29T13:14:47.234Z,5.85
2023-04-29T13:17:19.524Z,5.72
2023-04-29T13:19:52.506Z,6.35
2023-04-29T13:22:24.504Z,6.90
2023-04-29T13:24:57.342Z,5.97
2023-04-29T13:27:29.297Z,8.10
2023-04-29T13:30:02.423Z,5.00
2023-04-29T13:32:43.625Z,6.05
2023-04-29T13:35:21.854Z,5.82
2023-04-29T13:37:53.727Z,5.90
2023-04-29T13:40:28.064Z,6.72
2023-04-29T13:43:05.957Z,6.80
2023-04-29T13:45:45.334Z,6.68
2023-04-29T13:48:45.310Z,5.50
2023-04-29T13:56:53.341Z,4.57
2023-04-29T14:02:23.450Z,6.55
2023-04-29T14:04:46.400Z,6.57
2023-04-29T14:07:18.396Z,6.75
2023-04-29T14:09:52.172Z,6.38
2023-04-29T14:12:24.480Z,6.47
2023-04-29T14:15:00.174Z,9.98
2023-04-29T14:17:33.000Z,6.60
2023-04-29T14:20:06.580Z,6.00
2023-04-29T14:22:38.841Z,5.65
2023-04-29T14:25:12.705Z,6.88
2023-04-29T14:27:44.615Z,6.35
2023-04-29T14:30:17.660Z,6.57
2023-04-29T14:32:49.677Z,6.53
2023-04-29T14:35:22.641Z,7.30
2023-04-29T14:37:54.513Z,5.68
2023-04-29T14:40:27.115Z,6.38
2023-04-29T14:42:59.411Z,6.40
2023-04-29T14:45:34.640Z,9.98
2023-04-29T14:48:08.306Z,6.88
2023-04-29T14:50:41.038Z,5.70
2023-04-29T14:53:13.021Z,6.53
2023-04-29T14:55:46.303Z,7.07
2023-04-29T14:58:18.643Z,10.45
2023-04-29T15:00:51.908Z,5.28
2023-04-29T15:03:24.108Z,5.72
2023-04-29T15:05:59.178Z,5.63
2023-04-29T15:08:32.091Z,5.97
2023-04-29T15:11:04.786Z,6.07
2023-04-29T15:13:37.562Z,7.70
2023-04-29T15:16:10.326Z,6.32
2023-04-29T15:21:36.079Z,6.57
2023-04-29T15:24:09.765Z,6.45
2023-04-29T15:26:42.092Z,9.57
2023-04-29T15:29:15.136Z,6.50
2023-04-29T15:31:47.852Z,7.75
2023-04-29T15:34:19.731Z,6.97
2023-04-29T15:36:52.807Z,8.75
2023-04-29T15:39:25.071Z,8.15
2023-04-29T15:41:59.244Z,7.35
2023-04-29T15:44:33.079Z,7.75
2023-04-29T15:47:05.046Z,8.97
2023-04-29T15:49:38.739Z,8.18
2023-04-29T15:52:11.006Z,7.20
2023-04-29T15:54:44.107Z,8.35
2023-04-29T15:57:41.664Z,10.23
2023-04-29T16:00:13.899Z,10.43
2023-04-29T16:02:47.230Z,9.80
2023-04-29T16:05:19.158Z,9.75
2023-04-29T16:07:52.359Z,8.25
2023-04-29T16:10:24.389Z,8.60
2023-04-29T16:12:57.229Z,10.77
2023-04-29T16:15:30.415Z,9.00
2023-04-29T16:18:02.385Z,8.98
2023-04-29T16:20:35.369Z,8.93
2023-04-29T16:23:08.115Z,9.38
2023-04-29T16:26:02.164Z,8.60
2023-04-29T16:28:34.567Z,7.43
2023-04-29T16:31:08.138Z,8.48
2023-04-29T16:33:41.084Z,7.40
2023-04-29T16:36:14.349Z,9.68
2023-04-29T16:38:47.019Z,8.57
2023-04-29T16:41:18.862Z,7.93
2023-04-29T16:43:51.586Z,8.65
2023-04-29T16:46:24.675Z,8.65
2023-04-29T16:48:57.124Z,8.07
2023-04-29T16:51:30.426Z,10.50
2023-04-29T16:54:02.629Z,7.65
2023-04-29T16:56:35.358Z,9.70
2023-04-29T16:59:08.452Z,9.07
2023-04-29T17:04:35.973Z,7.47
2023-04-29T17:07:09.770Z,9.32
2023-04-29T17:09:41.719Z,7.53
2023-04-29T17:12:14.641Z,8.38
2023-04-29T17:14:48.327Z,7.30
2023-04-29T17:17:21.775Z,8.80
2023-04-29T17:19:55.393Z,12.93
2023-04-29T17:22:28.978Z,9.32
2023-04-29T17:25:01.665Z,9.05
2023-04-29T17:27:34.710Z,8.18
2023-04-29T17:30:08.100Z,10.47
2023-04-29T17:32:41.784Z,11.85
2023-04-29T17:35:13.721Z,9.38
2023-04-29T17:37:47.995Z,10.68
2023-04-29T17:40:20.023Z,10.43
2023-04-29T17:42:52.924Z,12.07
2023-04-29T17:45:25.797Z,9.77
2023-04-29T17:47:58.646Z,9.32
2023-04-29T17:50:30.880Z,10.35
2023-04-29T17:53:03.637Z,11.35
2023-04-29T17:55:40.002Z,10.60
2023-04-29T17:58:12.147Z,11.80
2023-04-29T18:00:46.567Z,9.63
2023-04-29T18:03:18.960Z,13.48
2023-04-29T18:05:51.992Z,11.88
2023-04-29T18:08:24.814Z,11.07
2023-04-29T18:10:57.113Z,13.43
2023-04-29T18:13:29.534Z,10.02
2023-04-29T18:16:02.294Z,12.05
2023-04-29T18:18:35.737Z,11.30
2023-04-29T18:21:09.506Z,10.30
2023-04-29T18:23:41.874Z,12.23
2023-04-29T18:26:15.770Z,10.65
2023-04-29T18:28:48.519Z,12.00
2023-04-29T18:31:23.521Z,10.25
2023-04-29T18:33:55.843Z,12.80
2023-04-29T18:36:29.091Z,10.93
2023-04-29T18:39:02.235Z,11.85
2023-04-29T18:41:34.154Z,11.73
2023-04-29T18:44:06.870Z,10.95
2023-04-29T18:46:39.376Z,11.57
2023-04-29T18:49:16.415Z,10.38
2023-04-29T18:51:49.678Z,11.45
2023-04-29T18:54:22.913Z,11.15
2023-04-29T18:56:55.926Z,11.35
2023-04-29T18:59:30.030Z,13.33
2023-04-29T19:02:02.129Z,12.10
2023-04-29T19:04:36.197Z,11.15
2023-04-29T19:07:08.125Z,12.70
2023-04-29T19:09:40.978Z,11.73
2023-04-29T19:12:12.837Z,13.83
2023-04-29T19:14:45.703Z,12.93
2023-04-29T19:17:18.327Z,12.18
2023-04-29T19:19:50.302Z,12.80
2023-04-29T19:22:23.088Z,10.48
2023-04-29T19:24:55.860Z,13.13
2023-04-29T19:27:28.997Z,13.27
2023-04-29T19:30:00.907Z,12.43
2023-04-29T19:32:34.152Z,12.35
2023-04-29T19:35:07.779Z,12.45
2023-04-29T19:37:40.491Z,14.97
2023-04-29T19:40:13.420Z,13.27
2023-04-29T19:42:45.746Z,13.48
2023-04-29T19:45:18.060Z,11.80
2023-04-29T19:47:51.255Z,13.80
2023-04-29T19:50:23.703Z,15.47
2023-04-29T19:52:56.531Z,13.57
2023-04-29T19:55:29.283Z,14.75
2023-04-29T19:58:02.026Z,14.90
2023-04-29T20:00:36.704Z,15.05
2023-04-29T20:03:09.089Z,12.37
2023-04-29T20:05:41.803Z,13.20
2023-04-29T20:08:14.239Z,13.90
2023-04-29T20:10:46.316Z,13.70
2023-04-29T20:13:19.448Z,12.50
2023-04-29T20:15:51.846Z,14.23
2023-04-29T20:18:24.141Z,17.65
2023-04-29T20:20:57.338Z,15.05
2023-04-29T20:26:22.699Z,12.13
2023-04-29T20:28:55.967Z,13.53
2023-04-29T20:31:28.917Z,14.65
2023-04-29T20:34:20.053Z,12.88
2023-04-29T20:36:52.385Z,14.65
2023-04-29T20:39:28.048Z,14.10
2023-04-29T20:44:56.631Z,15.07
2023-04-29T20:47:30.363Z,14.88
2023-04-29T20:50:05.263Z,13.57
2023-04-29T20:52:37.218Z,13.88
2023-04-29T20:55:10.774Z,15.10
2023-04-29T20:57:43.097Z,14.90
2023-04-29T21:00:15.242Z,12.95
2023-04-29T21:02:47.992Z,17.58
2023-04-29T21:05:20.034Z,20.67
2023-04-29T21:07:53.516Z,16.63
2023-04-29T21:10:25.797Z,15.95
2023-04-29T21:12:58.733Z,17.17
2023-04-29T21:15:31.471Z,21.75
2023-04-29T21:18:04.931Z,15.27
2023-04-29T21:20:37.265Z,14.68
2023-04-29T21:23:09.591Z,16.02
2023-04-29T21:25:41.436Z,16.20
2023-04-29T21:28:16.773Z,15.27
2023-04-29T21:30:48.953Z,17.08
2023-04-29T21:33:21.886Z,15.37
2023-04-29T21:35:53.855Z,15.15
2023-04-29T21:38:26.971Z,14.40
2023-04-29T21:41:00.635Z,15.10
2023-04-29T21:43:33.935Z,14.38
2023-04-29T21:46:07.136Z,17.08
2023-04-29T21:48:40.476Z,14.70
2023-04-29T21:51:12.530Z,13.90
2023-04-29T21:53:46.196Z,18.05
2023-04-29T21:56:18.255Z,17.05
2023-04-29T21:58:51.228Z,17.30
2023-04-29T22:01:41.804Z,15.10
2023-04-29T22:04:16.738Z,13.90
2023-04-29T22:06:48.647Z,13.63
2023-04-29T22:09:21.919Z,15.75
2023-04-29T22:11:54.254Z,15.33
2023-04-29T22:14:27.030Z,13.50
2023-04-29T22:16:59.028Z,14.43
2023-04-29T22:19:31.695Z,14.27
2023-04-29T22:22:04.201Z,12.65
2023-04-29T22:24:36.897Z,14.93
2023-04-29T22:27:08.888Z,17.17
2023-04-29T22:29:41.543Z,15.40
2023-04-29T22:32:14.349Z,16.13
2023-04-29T22:34:46.702Z,13.05
2023-04-29T22:37:18.979Z,14.38
2023-04-29T22:39:52.416Z,12.63
2023-04-29T22:42:24.583Z,15.30
2023-04-29T22:47:48.989Z,14.43
2023-04-29T22:50:22.866Z,15.27
2023-04-29T22:52:55.148Z,14.82
2023-04-29T22:55:28.239Z,13.38
2023-04-29T22:58:00.517Z,14.20
2023-04-29T23:00:33.327Z,14.32
2023-04-29T23:03:05.698Z,13.23
2023-04-29T23:05:38.036Z,18.48
2023-04-29T23:08:11.100Z,14.02
2023-04-29T23:10:50.783Z,12.05
2023-04-29T23:13:23.971Z,13.43
2023-04-29T23:15:57.713Z,15.02
2023-04-29T23:18:30.853Z,14.63
2023-04-29T23:21:03.512Z,15.35
2023-04-29T23:23:36.641Z,15.80
2023-04-29T23:26:09.071Z,13.50
2023-04-29T23:28:41.744Z,13.88
2023-04-29T23:31:13.697Z,12.60
2023-04-29T23:33:46.851Z,17.20
2023-04-29T23:36:18.762Z,15.15
2023-04-29T23:38:51.836Z,14.70
2023-04-29T23:41:23.679Z,15.77
2023-04-29T23:44:01.317Z,15.38
2023-04-29T23:46:34.609Z,16.17
2023-04-29T23:49:07.008Z,13.65
2023-04-29T23:51:39.684Z,14.45
2023-04-29T23:54:12.001Z,13.75
2023-04-29T23:56:43.844Z,13.85
2023-04-29T23:59:16.539Z,14.30
